Time;durP1;ratioP1;P1;durP2;ratioP2;P2;SDS_P1;SDS_P2;PMS_P1;PMS_P2;Temp;Humidity;BMP_temperature;BMP_pressure;BME280_temperature;BME280_humidity;BME280_pressure;Samples;Min_cycle;Max_cycle;Signal;HPM_P1;HPM_P2
2022/07/24 00:01:57;;;;;;;9.17;8.47;;;;;;;11.35;91.87;101973.59;4933880;28;21014;-45
2022/07/24 00:04:25;;;;;;;10.43;9.63;;;;;;;11.31;92.10;101972.28;4934506;29;20437;-48
2022/07/24 00:06:57;;;;;;;10.10;9.20;;;;;;;11.30;92.16;101964.44;4934285;29;20499;-42
2022/07/24 00:09:25;;;;;;;11.37;10.27;;;;;;;11.29;92.36;101955.59;4934277;29;20441;-45
2022/07/24 00:11:53;;;;;;;10.53;9.63;;;;;;;11.30;92.42;101967.09;4933931;28;20479;-46
2022/07/24 00:14:21;;;;;;;9.57;8.40;;;;;;;11.27;92.48;101965.63;4934191;29;20443;-47
2022/07/24 00:16:48;;;;;;;10.10;9.10;;;;;;;11.27;92.71;101959.44;4934076;29;20575;-44
2022/07/24 00:19:16;;;;;;;10.37;9.47;;;;;;;11.26;92.75;101969.28;4936140;29;20444;-46
2022/07/24 00:21:44;;;;;;;10.67;9.87;;;;;;;11.26;92.80;101965.78;4937519;28;20824;-44
2022/07/24 00:24:13;;;;;;;11.50;10.50;;;;;;;11.24;93.29;101960.63;4937615;29;20437;-45
2022/07/24 00:26:40;;;;;;;10.20;9.40;;;;;;;11.22;93.50;101959.97;4937919;29;20858;-43
2022/07/24 00:29:08;;;;;;;12.03;9.63;;;;;;;11.22;93.36;101956.44;4937898;29;20810;-43
2022/07/24 00:31:36;;;;;;;10.97;10.00;;;;;;;11.21;93.63;101962.78;4937358;28;20469;-45
2022/07/24 00:34:03;;;;;;;11.00;10.10;;;;;;;11.20;93.88;101955.81;4937425;29;20465;-43
2022/07/24 00:36:31;;;;;;;10.67;9.67;;;;;;;11.16;93.69;101955.31;4937408;29;20478;-44
2022/07/24 00:38:58;;;;;;;11.67;10.57;;;;;;;11.14;94.34;101961.81;4937768;29;20444;-46
2022/07/24 00:41:28;;;;;;;10.20;9.50;;;;;;;11.14;94.37;101959.16;4937012;28;21012;-45
2022/07/24 00:44:06;;;;;;;12.80;11.63;;;;;;;11.14;94.79;101959.16;4937392;29;20432;-43
2022/07/24 00:46:35;;;;;;;10.70;9.80;;;;;;;11.12;95.06;101956.63;4937421;29;20471;-44
2022/07/24 00:49:05;;;;;;;11.67;10.67;;;;;;;11.10;95.40;101956.81;4937293;29;20444;-45
2022/07/24 00:51:45;;;;;;;11.97;10.87;;;;;;;11.10;95.55;101958.66;4937177;28;20464;-42
2022/07/24 00:54:15;;;;;;;11.70;10.70;;;;;;;11.11;95.63;101954.97;4937193;29;20436;-47
2022/07/24 00:56:45;;;;;;;11.33;10.33;;;;;;;11.09;95.52;101960.50;4937388;29;20460;-45
2022/07/24 00:59:13;;;;;;;9.60;8.90;;;;;;;11.08;95.19;101964.16;4937179;29;20528;-45
2022/07/24 01:01:41;;;;;;;11.27;10.27;;;;;;;11.06;95.16;101958.16;4936626;28;20494;-45
2022/07/24 01:04:10;;;;;;;12.50;11.40;;;;;;;11.05;95.62;101953.81;4937107;29;20487;-45
2022/07/24 01:06:41;;;;;;;9.67;8.93;;;;;;;11.06;95.68;101951.97;4937170;29;20464;-44
2022/07/24 01:09:09;;;;;;;12.70;11.17;;;;;;;11.07;96.00;101953.66;4937062;29;20443;-45
2022/07/24 01:11:37;;;;;;;11.70;10.70;;;;;;;11.07;96.18;101946.50;4936658;28;20465;-45
2022/07/24 01:14:07;;;;;;;12.03;10.90;;;;;;;11.06;96.53;101947.47;4936680;29;20495;-43
2022/07/24 01:16:35;;;;;;;11.80;10.80;;;;;;;11.07;96.64;101951.81;4936822;29;20472;-45
2022/07/24 01:19:03;;;;;;;11.07;10.17;;;;;;;11.08;97.04;101952.63;4936987;29;20445;-45
2022/07/24 01:21:33;;;;;;;11.53;10.00;;;;;;;11.07;96.97;101951.81;4936396;28;20469;-45
2022/07/24 01:24:01;;;;;;;9.53;8.93;;;;;;;11.07;97.31;101959.00;4936544;29;20452;-46
2022/07/24 01:26:28;;;;;;;10.97;9.97;;;;;;;11.06;97.44;101960.81;4936711;29;20471;-44
2022/07/24 01:28:56;;;;;;;11.83;10.73;;;;;;;11.03;97.54;101953.16;4936714;29;20448;-47
2022/07/24 01:31:24;;;;;;;10.67;9.67;;;;;;;11.05;97.47;101950.34;4936042;28;20471;-51
2022/07/24 01:33:51;;;;;;;10.97;9.87;;;;;;;11.05;97.50;101959.16;4936147;29;20523;-48
2022/07/24 01:36:19;;;;;;;15.33;9.53;;;;;;;11.03;97.48;101952.31;4936391;29;20831;-47
2022/07/24 01:38:48;;;;;;;10.87;9.87;;;;;;;11.03;97.25;101950.50;4936480;29;20436;-46
2022/07/24 01:41:18;;;;;;;10.57;9.60;;;;;;;11.02;97.31;101943.47;4935994;28;20826;-46
2022/07/24 01:43:46;;;;;;;9.73;8.70;;;;;;;11.04;97.10;101946.81;4936077;29;20477;-45
2022/07/24 01:46:13;;;;;;;9.93;9.07;;;;;;;11.05;97.46;101945.00;4936504;29;20827;-48
2022/07/24 01:48:42;;;;;;;11.57;9.20;;;;;;;11.06;97.25;101935.97;4936454;29;20844;-49
2022/07/24 01:51:10;;;;;;;8.67;8.07;;;;;;;11.05;97.25;101939.66;4935856;28;20536;-49
2022/07/24 01:53:38;;;;;;;9.70;8.90;;;;;;;11.06;97.46;101930.63;4935964;29;20799;-47
2022/07/24 01:56:08;;;;;;;10.70;9.87;;;;;;;11.05;97.11;101934.31;4936435;29;20456;-48
2022/07/24 01:58:39;;;;;;;14.87;10.97;;;;;;;11.05;97.83;101945.00;4936489;29;20531;-48
2022/07/24 02:01:07;;;;;;;10.47;9.60;;;;;;;11.05;97.35;101955.69;4935682;28;20460;-48
2022/07/24 02:03:34;;;;;;;10.90;10.00;;;;;;;11.05;97.59;101948.47;4935967;29;20480;-46
2022/07/24 02:06:02;;;;;;;11.63;10.60;;;;;;;11.03;97.59;101939.81;4935782;29;20457;-46
2022/07/24 02:08:30;;;;;;;11.20;10.20;;;;;;;11.01;97.90;101939.16;4936174;29;20440;-47
2022/07/24 02:10:57;;;;;;;11.63;10.63;;;;;;;11.01;98.73;101946.31;4935603;28;20429;-44
2022/07/24 02:13:26;;;;;;;10.23;9.43;;;;;;;11.01;98.53;101938.31;4935667;29;20439;-45
2022/07/24 02:15:56;;;;;;;13.27;10.67;;;;;;;11.02;98.82;101950.69;4935723;29;20452;-45
2022/07/24 02:18:24;;;;;;;10.63;9.83;;;;;;;11.01;99.00;101947.16;4935719;29;20935;-48
2022/07/24 02:20:52;;;;;;;10.50;9.60;;;;;;;11.00;98.87;101950.00;4935195;28;20444;-44
2022/07/24 02:23:19;;;;;;;11.27;10.30;;;;;;;10.99;98.85;101946.47;4935530;29;21033;-45
2022/07/24 02:25:48;;;;;;;11.37;10.47;;;;;;;10.98;98.79;101949.34;4935647;29;20441;-48
2022/07/24 02:28:16;;;;;;;11.87;10.87;;;;;;;10.97;98.79;101937.81;4935680;29;20441;-47
2022/07/24 02:30:45;;;;;;;9.80;8.97;;;;;;;10.95;98.99;101942.50;4935678;29;20965;-47
2022/07/24 02:33:13;;;;;;;10.97;10.07;;;;;;;10.91;98.90;101932.31;4934872;29;20808;-51
2022/07/24 02:35:41;;;;;;;10.43;9.67;;;;;;;10.90;98.88;101944.03;4935522;29;20432;-51
2022/07/24 02:38:08;;;;;;;12.43;11.23;;;;;;;10.89;99.00;101947.69;4936016;29;20459;-45
2022/07/24 02:40:36;;;;;;;11.23;9.13;;;;;;;10.88;99.07;101943.34;4935861;29;20440;-43
2022/07/24 02:43:04;;;;;;;11.50;10.60;;;;;;;10.89;99.19;101937.00;4934458;28;20859;-44
2022/07/24 02:45:31;;;;;;;13.87;11.00;;;;;;;10.90;99.30;101941.34;4935546;29;20443;-50
2022/07/24 02:48:00;;;;;;;10.87;9.90;;;;;;;10.92;99.33;101939.34;4935132;29;20468;-48
2022/07/24 02:50:32;;;;;;;11.83;10.53;;;;;;;10.91;99.52;101938.50;4935467;29;20432;-46
2022/07/24 02:53:00;;;;;;;11.60;10.60;;;;;;;10.91;99.61;101932.31;4934511;28;20471;-51
2022/07/24 02:55:28;;;;;;;13.87;11.67;;;;;;;10.93;99.80;101939.16;4935177;29;20451;-46
2022/07/24 02:57:56;;;;;;;12.30;11.00;;;;;;;10.95;99.88;101939.84;4934980;29;21012;-45
2022/07/24 03:00:24;;;;;;;12.57;11.03;;;;;;;10.96;100.00;101943.34;4934965;29;20437;-45
2022/07/24 03:02:52;;;;;;;16.17;11.00;;;;;;;10.98;99.89;101934.16;4934472;28;20508;-48
2022/07/24 03:05:20;;;;;;;11.07;10.07;;;;;;;11.01;100.00;101927.66;4935068;29;20440;-43
2022/07/24 03:07:48;;;;;;;10.97;9.97;;;;;;;11.02;99.95;101934.66;4934916;29;20457;-48
2022/07/24 03:10:16;;;;;;;10.50;9.70;;;;;;;11.02;99.66;101938.13;4934970;29;20437;-47
2022/07/24 03:12:44;;;;;;;12.10;10.90;;;;;;;11.05;99.93;101937.00;4934252;28;20468;-51
2022/07/24 03:15:13;;;;;;;12.47;11.00;;;;;;;11.06;99.91;101931.47;4935059;29;20443;-46
2022/07/24 03:17:50;;;;;;;13.33;12.13;;;;;;;11.11;100.00;101930.94;4934762;29;20472;-43
2022/07/24 03:20:17;;;;;;;10.80;9.73;;;;;;;11.13;100.00;101941.47;4934887;29;20437;-44
2022/07/24 03:22:47;;;;;;;12.73;11.53;;;;;;;11.17;100.00;101940.13;4933283;28;20476;-47
2022/07/24 03:25:15;;;;;;;12.50;11.30;;;;;;;11.18;100.00;101942.59;4934576;29;20957;-44
2022/07/24 03:27:43;;;;;;;14.73;12.40;;;;;;;11.22;100.00;101948.44;4935039;29;20556;-47
2022/07/24 03:30:12;;;;;;;13.90;11.57;;;;;;;11.25;100.00;101951.59;4934894;29;20439;-49
2022/07/24 03:32:39;;;;;;;12.77;11.67;;;;;;;11.30;99.99;101946.56;4933996;28;20456;-45
2022/07/24 03:35:08;;;;;;;14.70;13.27;;;;;;;11.34;100.00;101947.91;4934645;29;20803;-45
2022/07/24 03:37:36;;;;;;;15.10;12.30;;;;;;;11.41;100.00;101953.41;4934455;29;20465;-45
2022/07/24 03:40:06;;;;;;;13.13;11.93;;;;;;;11.49;100.00;101951.53;4934685;29;20456;-49
2022/07/24 03:42:34;;;;;;;12.73;11.53;;;;;;;11.59;100.00;101948.63;4933978;28;20468;-46
2022/07/24 03:45:02;;;;;;;13.20;12.00;;;;;;;11.67;100.00;101948.59;4934683;29;20488;-43
2022/07/24 03:47:29;;;;;;;12.03;10.90;;;;;;;11.78;100.00;101947.41;4934475;29;20469;-43
2022/07/24 03:49:57;;;;;;;12.43;11.30;;;;;;;11.90;100.00;101948.69;4934624;29;20807;-46
2022/07/24 03:52:25;;;;;;;11.93;10.83;;;;;;;12.03;100.00;101949.78;4933814;28;21012;-45
2022/07/24 03:54:54;;;;;;;12.90;11.70;;;;;;;12.19;100.00;101941.63;4937934;29;20456;-46
2022/07/24 03:57:24;;;;;;;12.90;11.87;;;;;;;12.30;99.99;101947.59;4938364;29;20460;-43
2022/07/24 03:59:52;;;;;;;11.53;10.73;;;;;;;12.44;100.00;101928.06;4938508;29;20440;-43
2022/07/24 04:02:19;;;;;;;12.37;11.20;;;;;;;12.58;99.77;101924.59;4937961;28;20452;-46
2022/07/24 04:04:47;;;;;;;12.73;11.73;;;;;;;12.69;99.39;101925.00;4938186;29;20565;-44
2022/07/24 04:07:14;;;;;;;12.47;11.00;;;;;;;12.78;98.99;101918.53;4938471;29;20460;-47
2022/07/24 04:09:42;;;;;;;10.87;9.97;;;;;;;12.91;98.13;101925.13;4938826;29;20532;-45
2022/07/24 04:12:10;;;;;;;13.07;11.67;;;;;;;13.01;97.67;101923.00;4937816;28;20460;-47
2022/07/24 04:14:39;;;;;;;11.47;10.37;;;;;;;13.15;97.86;101924.91;4938563;29;20432;-45
2022/07/24 04:17:06;;;;;;;10.27;9.53;;;;;;;13.32;98.02;101921.00;4938318;29;20479;-45
2022/07/24 04:19:34;;;;;;;10.93;9.83;;;;;;;13.49;97.96;101917.13;4938287;29;20796;-45
2022/07/24 04:22:01;;;;;;;10.70;9.73;;;;;;;13.65;97.85;101911.53;4937921;28;20839;-43
2022/07/24 04:24:29;;;;;;;9.40;8.70;;;;;;;13.82;97.50;101906.78;4938018;29;20476;-46
2022/07/24 04:26:57;;;;;;;10.70;9.90;;;;;;;14.00;97.27;101914.41;4938225;29;20468;-44
2022/07/24 04:29:24;;;;;;;10.20;9.30;;;;;;;14.23;97.21;101915.03;4938514;29;20437;-45
2022/07/24 04:31:53;;;;;;;10.60;9.70;;;;;;;14.98;99.30;101909.06;4937812;28;20468;-44
2022/07/24 04:34:21;;;;;;;10.50;9.60;;;;;;;15.69;98.24;101902.41;4937922;29;20464;-46
2022/07/24 04:36:49;;;;;;;9.63;8.50;;;;;;;16.25;95.61;101906.47;4937944;29;20461;-43
2022/07/24 04:39:17;;;;;;;10.17;9.30;;;;;;;16.98;93.51;101908.13;4937813;29;20471;-45
2022/07/24 04:41:45;;;;;;;9.53;8.87;;;;;;;17.63;87.53;101900.88;4937349;28;20477;-48
2022/07/24 04:44:12;;;;;;;10.20;9.20;;;;;;;17.87;82.14;101893.91;4937355;29;20480;-45
2022/07/24 04:46:40;;;;;;;8.33;7.73;;;;;;;18.21;78.34;101890.78;4937381;29;20464;-47
2022/07/24 04:49:09;;;;;;;10.20;9.17;;;;;;;18.47;76.30;101887.03;4937528;29;20446;-47
2022/07/24 04:51:37;;;;;;;9.23;8.53;;;;;;;18.59;72.62;101891.53;4937065;28;20986;-45
2022/07/24 04:54:05;;;;;;;9.73;8.93;;;;;;;18.93;73.86;101890.19;4937280;29;20806;-46
2022/07/24 04:56:33;;;;;;;8.80;8.10;;;;;;;19.89;73.52;101887.56;4937256;29;20460;-46
2022/07/24 04:59:01;;;;;;;8.17;7.67;;;;;;;20.36;69.18;101883.94;4937304;29;20436;-48
2022/07/24 05:01:30;;;;;;;8.43;7.93;;;;;;;20.34;69.28;101891.47;4937018;28;20520;-48
2022/07/24 05:03:58;;;;;;;9.40;8.30;;;;;;;20.10;67.23;101886.22;4936684;29;20480;-51
2022/07/24 05:06:28;;;;;;;8.63;8.00;;;;;;;19.86;68.12;101888.03;4937114;29;20746;-46
2022/07/24 05:08:55;;;;;;;8.07;7.77;;;;;;;19.58;68.25;101895.91;4937098;29;20446;-49
2022/07/24 05:11:23;;;;;;;8.57;8.10;;;;;;;19.27;68.61;101891.44;4936558;28;20474;-48
2022/07/24 05:13:51;;;;;;;7.70;7.33;;;;;;;18.99;68.42;101889.28;4937147;29;20439;-48
2022/07/24 05:16:18;;;;;;;9.37;8.70;;;;;;;18.65;68.35;101896.06;4936925;29;20478;-46
2022/07/24 05:18:46;;;;;;;8.67;8.00;;;;;;;18.39;69.03;101888.16;4937136;29;20523;-49
2022/07/24 05:21:15;;;;;;;8.80;8.20;;;;;;;18.24;71.38;101890.34;4936399;28;20471;-51
2022/07/24 05:23:44;;;;;;;9.00;8.50;;;;;;;18.20;72.62;101897.22;4936556;29;20460;-43
2022/07/24 05:26:12;;;;;;;8.73;8.13;;;;;;;18.15;72.95;101897.91;4936715;29;20511;-46
2022/07/24 05:28:39;;;;;;;8.77;8.07;;;;;;;18.12;72.80;101903.72;4937048;29;20440;-45
2022/07/24 05:31:08;;;;;;;9.10;8.50;;;;;;;18.08;72.49;101898.97;4936439;28;20459;-45
2022/07/24 05:33:36;;;;;;;9.47;8.77;;;;;;;18.10;73.91;101896.88;4936567;29;20481;-45
2022/07/24 05:36:04;;;;;;;8.93;8.43;;;;;;;18.08;73.49;101897.09;4936469;29;20451;-46
2022/07/24 05:38:32;;;;;;;10.10;9.50;;;;;;;18.12;74.00;101895.63;4936611;29;20428;-45
2022/07/24 05:41:01;;;;;;;10.70;9.80;;;;;;;18.13;73.33;101894.56;4936075;28;20919;-43
2022/07/24 05:43:30;;;;;;;9.10;8.40;;;;;;;18.12;72.93;101895.63;4936333;29;20499;-45
2022/07/24 05:45:58;;;;;;;10.33;9.53;;;;;;;18.12;71.52;101892.09;4962039;23;20452;-44
2022/07/24 05:48:26;;;;;;;9.63;8.87;;;;;;;18.18;72.29;101886.66;4955451;29;20427;-46
2022/07/24 05:50:53;;;;;;;9.80;9.10;;;;;;;18.34;71.40;101882.56;4955142;28;20797;-48
2022/07/24 05:53:21;;;;;;;9.40;8.70;;;;;;;18.54;71.62;101882.44;4955312;29;20785;-50
2022/07/24 05:55:49;;;;;;;9.80;9.10;;;;;;;18.68;69.81;101883.97;4955524;29;20438;-44
2022/07/24 05:58:18;;;;;;;9.87;9.13;;;;;;;18.75;70.46;101872.06;4955490;29;20432;-49
2022/07/24 06:00:46;;;;;;;8.83;8.33;;;;;;;18.91;70.81;101873.34;4955092;29;20442;-47
2022/07/24 06:03:14;;;;;;;9.80;8.90;;;;;;;18.98;69.21;101866.00;4955019;29;20447;-46
2022/07/24 06:05:42;;;;;;;8.87;8.37;;;;;;;19.17;69.23;101870.38;4954904;29;20482;-44
2022/07/24 06:08:09;;;;;;;9.20;8.70;;;;;;;19.47;68.27;101875.03;4955326;29;20446;-47
2022/07/24 06:10:37;;;;;;;8.90;8.30;;;;;;;19.73;67.29;101871.97;4955374;29;20435;-45
2022/07/24 06:13:05;;;;;;;8.57;7.83;;;;;;;19.91;65.24;101877.31;4954424;29;20526;-47
2022/07/24 06:15:35;;;;;;;10.30;8.90;;;;;;;19.99;64.71;101876.16;4954644;28;21016;-44
2022/07/24 06:18:07;;;;;;;8.37;7.80;;;;;;;20.40;63.54;101881.56;4954718;29;20462;-46
2022/07/24 06:20:35;;;;;;;8.60;7.90;;;;;;;20.81;64.33;101880.66;4955092;29;20443;-45
2022/07/24 06:23:02;;;;;;;9.27;8.57;;;;;;;20.62;61.47;101871.00;4972747;28;20470;-45
2022/07/24 06:25:30;;;;;;;7.93;7.57;;;;;;;20.70;62.12;101870.63;4974140;28;20485;-47
2022/07/24 06:27:58;;;;;;;10.03;9.23;;;;;;;20.83;62.05;101873.94;4974069;28;20465;-48
2022/07/24 06:30:28;;;;;;;8.27;7.87;;;;;;;20.77;61.96;101876.75;4974062;28;20430;-50
2022/07/24 06:32:58;;;;;;;8.53;8.13;;;;;;;20.68;61.73;101875.47;4970066;28;20474;-45
2022/07/24 06:35:27;;;;;;;8.17;7.70;;;;;;;20.63;61.58;101868.06;4973926;28;20423;-45
2022/07/24 06:37:56;;;;;;;8.07;7.43;;;;;;;20.68;61.82;101870.03;4974082;28;20808;-44
2022/07/24 06:40:24;;;;;;;9.10;8.60;;;;;;;20.73;60.98;101854.72;4973929;28;20430;-46
2022/07/24 06:42:52;;;;;;;6.80;6.47;;;;;;;20.88;61.67;101868.63;4973172;28;20470;-49
2022/07/24 06:45:20;;;;;;;7.90;7.30;;;;;;;21.09;62.07;101867.19;4973612;28;20478;-45
2022/07/24 06:47:47;;;;;;;7.50;7.10;;;;;;;21.16;60.65;101859.78;4973765;28;20472;-46
2022/07/24 06:50:16;;;;;;;7.43;7.03;;;;;;;21.26;60.54;101864.59;4973794;28;20434;-49
2022/07/24 06:52:45;;;;;;;8.13;7.73;;;;;;;21.17;60.38;101866.03;4972888;28;20466;-44
2022/07/24 06:55:13;;;;;;;8.37;8.00;;;;;;;21.06;60.00;101862.22;4973653;28;20517;-43
2022/07/24 06:57:41;;;;;;;9.13;8.43;;;;;;;21.09;59.82;101859.06;4973430;28;20458;-48
2022/07/24 07:00:11;;;;;;;8.23;7.53;;;;;;;20.94;59.79;101856.00;4973694;28;20458;-47
2022/07/24 07:02:39;;;;;;;8.20;7.50;;;;;;;20.94;60.63;101858.72;4972941;28;20472;-43
2022/07/24 07:05:08;;;;;;;8.00;7.50;;;;;;;21.09;60.78;101864.50;4973427;28;20470;-50
2022/07/24 07:07:38;;;;;;;7.93;7.17;;;;;;;21.36;60.60;101857.47;4973251;28;20991;-48
2022/07/24 07:10:08;;;;;;;6.80;6.40;;;;;;;21.67;60.73;101867.03;4973353;28;20903;-46
2022/07/24 07:12:36;;;;;;;7.00;6.60;;;;;;;22.02;59.65;101856.84;4972240;28;20853;-46
2022/07/24 07:15:08;;;;;;;7.73;7.13;;;;;;;22.47;58.03;101858.66;4973644;28;20450;-50
2022/07/24 07:17:38;;;;;;;6.83;6.53;;;;;;;22.81;57.98;101848.59;4973251;28;20450;-44
2022/07/24 07:20:06;;;;;;;7.00;6.50;;;;;;;23.03;57.74;101847.53;4973250;28;20437;-44
2022/07/24 07:22:34;;;;;;;6.97;6.47;;;;;;;23.40;53.67;101847.75;4972674;28;20493;-45
2022/07/24 07:25:03;;;;;;;6.47;6.17;;;;;;;23.53;52.23;101849.25;4972253;28;20848;-46
2022/07/24 07:27:31;;;;;;;5.87;5.67;;;;;;;23.68;54.57;101842.06;4973118;28;20458;-47
2022/07/24 07:29:59;;;;;;;5.30;5.10;;;;;;;24.30;54.56;101838.84;4973236;28;20442;-44
2022/07/24 07:32:26;;;;;;;5.87;5.37;;;;;;;24.73;50.81;101835.84;4971250;28;20466;-47
2022/07/24 07:34:54;;;;;;;5.10;4.80;;;;;;;25.63;50.95;101837.34;4971197;28;20444;-45
2022/07/24 07:37:25;;;;;;;5.13;4.87;;;;;;;25.95;48.85;101834.41;4973182;28;20466;-49
2022/07/24 07:39:52;;;;;;;6.80;4.33;;;;;;;26.34;46.73;101827.28;4973278;28;20541;-46
2022/07/24 07:42:22;;;;;;;4.20;4.00;;;;;;;26.97;46.79;101821.44;4972499;28;20470;-47
2022/07/24 07:44:50;;;;;;;4.50;4.20;;;;;;;27.14;45.45;101822.72;4972998;28;20434;-46
2022/07/24 07:47:18;;;;;;;4.07;3.73;;;;;;;27.52;46.53;101823.09;4972844;28;20482;-48
2022/07/24 07:49:45;;;;;;;4.07;3.93;;;;;;;27.81;45.90;101826.72;4973139;28;20457;-47
2022/07/24 07:52:13;;;;;;;4.20;3.90;;;;;;;28.05;44.31;101815.91;4972409;28;20492;-52
2022/07/24 07:54:41;;;;;;;4.50;3.50;;;;;;;27.99;45.17;101824.13;4973041;28;20881;-46
2022/07/24 07:57:09;;;;;;;3.73;3.53;;;;;;;28.21;45.03;101820.13;4972978;28;20455;-46
2022/07/24 07:59:38;;;;;;;4.10;3.90;;;;;;;28.46;42.18;101817.94;4972899;28;20437;-45
2022/07/24 08:02:06;;;;;;;5.03;3.97;;;;;;;28.18;43.61;101820.72;4972226;28;20835;-46
2022/07/24 08:04:33;;;;;;;4.10;3.90;;;;;;;28.03;43.11;101821.63;4972349;28;20493;-46
2022/07/24 08:07:01;;;;;;;4.37;4.00;;;;;;;27.80;43.02;101820.44;4970229;28;20272;-51
2022/07/24 08:09:28;;;;;;;3.70;3.50;;;;;;;27.55;43.75;101817.03;4972287;28;20970;-45
2022/07/24 08:11:56;;;;;;;4.33;4.10;;;;;;;27.65;43.19;101812.34;4972130;28;20490;-50
2022/07/24 08:14:24;;;;;;;4.13;3.83;;;;;;;27.47;43.40;101815.75;4972408;28;20462;-48
2022/07/24 08:16:53;;;;;;;4.70;4.33;;;;;;;27.05;43.88;101808.00;4972354;28;20450;-45
2022/07/24 08:19:21;;;;;;;3.77;3.57;;;;;;;26.85;43.66;101802.59;4972588;28;20931;-48
2022/07/24 08:21:48;;;;;;;3.97;3.77;;;;;;;26.75;43.99;101803.41;4972208;28;20557;-48
2022/07/24 08:24:20;;;;;;;4.03;3.83;;;;;;;26.65;45.26;101813.56;4972631;28;20434;-45
2022/07/24 08:26:48;;;;;;;4.20;3.90;;;;;;;26.56;45.39;101805.09;4972643;28;20489;-46
2022/07/24 08:29:16;;;;;;;4.20;3.77;;;;;;;26.59;45.44;101804.56;4972776;28;20443;-49
2022/07/24 08:31:44;;;;;;;4.00;3.70;;;;;;;26.72;45.67;101803.97;4971919;28;20469;-48
2022/07/24 08:34:12;;;;;;;4.57;4.23;;;;;;;26.75;44.83;101797.94;4964371;28;20929;-45
2022/07/24 08:36:40;;;;;;;4.67;4.23;;;;;;;26.81;45.43;101788.66;4972568;28;20824;-47
2022/07/24 08:39:08;;;;;;;4.33;4.03;;;;;;;27.01;45.67;101795.94;4972729;28;20430;-44
2022/07/24 08:41:38;;;;;;;4.17;3.87;;;;;;;27.18;44.58;101792.88;4971796;28;20516;-45
2022/07/24 08:44:06;;;;;;;3.90;3.70;;;;;;;27.45;44.95;101791.34;4975641;28;20430;-45
2022/07/24 08:46:38;;;;;;;3.70;3.50;;;;;;;27.51;44.67;101783.91;4975718;28;20492;-45
2022/07/24 08:49:08;;;;;;;4.07;3.87;;;;;;;27.46;43.87;101787.53;4974803;28;20418;-47
2022/07/24 08:51:39;;;;;;;4.20;4.00;;;;;;;27.33;43.56;101793.59;4975484;28;20517;-47
2022/07/24 08:54:07;;;;;;;3.60;3.50;;;;;;;27.04;44.14;101786.34;4975620;28;20422;-47
2022/07/24 08:56:36;;;;;;;4.37;4.03;;;;;;;26.99;44.47;101779.00;4975580;28;20454;-47
2022/07/24 08:59:05;;;;;;;4.13;3.83;;;;;;;27.04;45.05;101778.97;4975791;28;20473;-46
2022/07/24 09:01:33;;;;;;;3.80;3.50;;;;;;;26.89;44.35;101779.03;4974965;28;20843;-47
2022/07/24 09:04:01;;;;;;;4.40;3.40;;;;;;;26.93;44.44;101780.94;4975675;28;20829;-47
2022/07/24 09:06:28;;;;;;;4.70;4.50;;;;;;;27.00;44.91;101774.34;4975838;28;20509;-44
2022/07/24 09:09:02;;;;;;;4.13;4.00;;;;;;;26.99;44.34;101776.25;4976681;28;20441;-48
2022/07/24 09:11:36;;;;;;;5.47;5.07;;;;;;;27.06;44.18;101768.53;4975119;28;20498;-47
2022/07/24 09:16:49;;;;;;;4.40;4.20;;;;;;;27.30;44.36;101774.97;4974656;28;20454;-45
2022/07/24 09:19:17;;;;;;;3.57;3.37;;;;;;;27.26;44.15;101767.63;4975121;28;20441;-49
2022/07/24 09:21:48;;;;;;;5.30;4.47;;;;;;;27.46;43.40;101759.31;4974531;28;20466;-48
2022/07/24 09:24:20;;;;;;;3.90;3.60;;;;;;;27.55;43.54;101763.06;4975349;28;20522;-50
2022/07/24 09:26:49;;;;;;;3.80;3.60;;;;;;;27.57;43.31;101760.84;4975227;28;20482;-48
2022/07/24 09:29:18;;;;;;;5.03;4.63;;;;;;;27.52;43.18;101755.41;4975086;28;20441;-50
2022/07/24 09:31:55;;;;;;;3.83;3.73;;;;;;;27.60;43.67;101760.28;4974518;28;20467;-46
2022/07/24 09:34:23;;;;;;;4.20;4.00;;;;;;;27.60;43.54;101754.81;4969177;28;20450;-46
2022/07/24 09:37:01;;;;;;;4.33;4.13;;;;;;;27.65;42.77;101753.97;4973690;28;20459;-46
2022/07/24 09:39:32;;;;;;;4.17;3.93;;;;;;;27.69;42.47;101750.34;4974425;28;20430;-48
2022/07/24 09:42:01;;;;;;;5.30;4.90;;;;;;;27.63;42.39;101754.22;4972566;28;20465;-47
2022/07/24 09:44:30;;;;;;;4.10;3.83;;;;;;;27.83;43.22;101748.59;4974200;28;20418;-47
2022/07/24 09:47:00;;;;;;;5.03;4.53;;;;;;;27.88;43.45;101748.56;4973369;28;20501;-46
2022/07/24 09:49:29;;;;;;;4.93;4.63;;;;;;;28.07;43.15;101745.13;4974099;28;20431;-50
2022/07/24 09:52:14;;;;;;;4.83;4.37;;;;;;;28.32;41.17;101737.44;4972282;28;20466;-46
2022/07/24 09:54:45;;;;;;;4.53;4.33;;;;;;;28.27;42.39;101753.16;4973576;28;20431;-45
2022/07/24 09:57:22;;;;;;;3.40;3.30;;;;;;;28.53;42.43;101747.09;4972709;28;20464;-51
2022/07/24 09:59:50;;;;;;;4.10;3.90;;;;;;;28.81;43.05;101750.91;4973755;28;20517;-49
2022/07/24 10:02:26;;;;;;;4.90;4.63;;;;;;;28.89;41.05;101749.41;4973055;28;20466;-47
2022/07/24 10:04:55;;;;;;;5.10;4.80;;;;;;;29.03;40.35;101751.13;4973269;28;20525;-51
2022/07/24 10:07:24;;;;;;;4.27;4.00;;;;;;;29.03;41.61;101751.13;4973066;28;20482;-52
2022/07/24 10:09:56;;;;;;;4.53;4.33;;;;;;;29.07;41.31;101740.38;4973905;28;20434;-48
2022/07/24 10:12:26;;;;;;;3.97;3.80;;;;;;;29.17;40.68;101734.75;4973039;28;20474;-49
2022/07/24 10:14:56;;;;;;;4.60;4.40;;;;;;;29.17;41.52;101723.75;4973780;28;20515;-47
2022/07/24 10:17:34;;;;;;;5.60;5.30;;;;;;;29.21;40.38;101730.28;4965796;28;20459;-52
2022/07/24 10:20:05;;;;;;;5.57;5.13;;;;;;;29.23;41.17;101730.00;4973701;28;20434;-45
2022/07/24 10:23:03;;;;;;;5.40;5.00;;;;;;;29.29;40.60;101731.59;4972811;28;20546;-48
2022/07/24 10:25:52;;;;;;;5.60;5.20;;;;;;;29.36;40.28;101721.06;4972751;28;20441;-51
2022/07/24 10:28:37;;;;;;;5.50;5.00;;;;;;;29.18;40.32;101727.34;4973044;28;20479;-50
2022/07/24 10:31:07;;;;;;;5.80;5.30;;;;;;;29.05;40.05;101718.72;4972950;28;20476;-50
2022/07/24 10:33:37;;;;;;;4.97;4.60;;;;;;;28.95;41.37;101709.78;4969195;28;20457;-49
2022/07/24 10:36:14;;;;;;;5.70;5.20;;;;;;;29.11;41.45;101705.72;4972520;28;20455;-47
2022/07/24 10:38:51;;;;;;;4.80;4.60;;;;;;;28.89;41.52;101706.31;4971617;28;20448;-47
2022/07/24 10:41:25;;;;;;;6.07;5.63;;;;;;;28.66;41.48;101698.94;4972883;28;20458;-53
2022/07/24 10:44:14;;;;;;;6.10;5.70;;;;;;;28.73;41.90;101702.16;4963220;28;20457;-46
2022/07/24 10:46:59;;;;;;;5.00;4.50;;;;;;;29.12;41.69;101695.56;4972234;28;20537;-47
2022/07/24 10:49:40;;;;;;;5.20;4.90;;;;;;;29.16;41.24;101694.66;4972918;28;20438;-51
2022/07/24 10:52:11;;;;;;;5.30;5.00;;;;;;;29.47;41.63;101686.78;4958802;28;20474;-46
2022/07/24 10:54:39;;;;;;;5.47;5.07;;;;;;;29.52;40.57;101670.19;4972710;28;20430;-54
2022/07/24 10:57:08;;;;;;;5.87;5.47;;;;;;;29.54;39.77;101674.28;4972786;28;20458;-48
2022/07/24 10:59:41;;;;;;;6.47;6.00;;;;;;;29.45;40.18;101670.59;4972678;28;20442;-49
2022/07/24 11:02:29;;;;;;;6.73;6.23;;;;;;;29.49;40.52;101666.13;4960977;28;20481;-47
2022/07/24 11:05:32;;;;;;;5.60;5.30;;;;;;;29.47;39.55;101659.31;4953637;29;20437;-51
2022/07/24 11:08:29;;;;;;;6.60;6.10;;;;;;;29.43;39.87;101653.59;4953302;29;20474;-46
2022/07/24 11:11:00;;;;;;;6.40;5.87;;;;;;;29.52;39.75;101659.22;4953172;29;20426;-53
2022/07/24 11:13:43;;;;;;;8.57;6.33;;;;;;;29.57;39.54;101656.34;4953214;29;20446;-48
2022/07/24 11:16:19;;;;;;;5.73;5.13;;;;;;;29.61;40.14;101649.97;4952900;29;20542;-46
2022/07/24 11:19:27;;;;;;;6.20;5.60;;;;;;;29.66;39.82;101651.00;4953466;29;20900;-52
2022/07/24 11:22:09;;;;;;;6.87;6.23;;;;;;;29.41;38.97;101649.50;4952762;29;20558;-48
2022/07/24 11:25:11;;;;;;;8.93;5.27;;;;;;;29.35;39.87;101653.47;4953070;29;20842;-48
2022/07/24 11:27:50;;;;;;;5.77;5.37;;;;;;;29.15;40.85;101645.53;4953105;29;20506;-49
2022/07/24 11:30:21;;;;;;;5.93;5.63;;;;;;;29.16;41.17;101652.63;4953437;29;20856;-53
2022/07/24 11:32:49;;;;;;;5.03;4.70;;;;;;;29.36;41.53;101644.13;4965598;28;20463;-53
2022/07/24 11:35:16;;;;;;;7.47;6.80;;;;;;;29.32;39.90;101632.09;4972705;28;20518;-53